sensor_id;sensor_type;location;lat;lon;timestamp;temperature;humidity
19878;DHT22;10101;52.204;9.910;2022-09-09T00:00:14;13.50;99.90
19878;DHT22;10101;52.204;9.910;2022-09-09T00:02:45;13.50;99.90
19878;DHT22;10101;52.204;9.910;2022-09-09T00:05:19;13.50;99.90
19878;DHT22;10101;52.204;9.910;2022-09-09T00:07:54;13.50;99.90
19878;DHT22;10101;52.204;9.910;2022-09-09T00:10:28;13.50;99.90
19878;DHT22;10101;52.204;9.910;2022-09-09T00:12:59;13.30;99.90
19878;DHT22;10101;52.204;9.910;2022-09-09T00:15:31;13.30;99.90
19878;DHT22;10101;52.204;9.910;2022-09-09T00:18:07;13.30;99.90
19878;DHT22;10101;52.204;9.910;2022-09-09T00:20:39;13.30;99.90
19878;DHT22;10101;52.204;9.910;2022-09-09T00:23:15;13.20;99.90
19878;DHT22;10101;52.204;9.910;2022-09-09T00:25:51;13.20;99.90
19878;DHT22;10101;52.204;9.910;2022-09-09T00:28:23;13.20;99.90
19878;DHT22;10101;52.204;9.910;2022-09-09T00:30:52;13.20;99.90
19878;DHT22;10101;52.204;9.910;2022-09-09T00:33:22;13.10;99.90
19878;DHT22;10101;52.204;9.910;2022-09-09T00:35:51;13.10;99.90
19878;DHT22;10101;52.204;9.910;2022-09-09T00:38:24;13.10;99.90
19878;DHT22;10101;52.204;9.910;2022-09-09T00:40:53;13.10;99.90
19878;DHT22;10101;52.204;9.910;2022-09-09T00:43:29;13.00;99.90
19878;DHT22;10101;52.204;9.910;2022-09-09T00:46:18;13.00;99.90
19878;DHT22;10101;52.204;9.910;2022-09-09T00:48:57;13.10;99.90
19878;DHT22;10101;52.204;9.910;2022-09-09T00:51:30;13.10;99.90
19878;DHT22;10101;52.204;9.910;2022-09-09T00:54:25;13.10;99.90
19878;DHT22;10101;52.204;9.910;2022-09-09T00:57:01;13.10;99.90
19878;DHT22;10101;52.204;9.910;2022-09-09T00:59:36;13.10;99.90
19878;DHT22;10101;52.204;9.910;2022-09-09T01:02:15;13.00;99.90
19878;DHT22;10101;52.204;9.910;2022-09-09T01:04:44;13.00;99.90
19878;DHT22;10101;52.204;9.910;2022-09-09T01:07:16;13.10;99.90
19878;DHT22;10101;52.204;9.910;2022-09-09T01:09:52;13.00;99.90
19878;DHT22;10101;52.204;9.910;2022-09-09T01:12:29;13.00;99.90
19878;DHT22;10101;52.204;9.910;2022-09-09T01:15:08;13.00;99.90
19878;DHT22;10101;52.204;9.910;2022-09-09T01:17:50;13.00;99.90
19878;DHT22;10101;52.204;9.910;2022-09-09T01:20:21;13.00;99.90
19878;DHT22;10101;52.204;9.910;2022-09-09T01:23:01;13.00;99.90
19878;DHT22;10101;52.204;9.910;2022-09-09T01:26:04;13.00;99.90
19878;DHT22;10101;52.204;9.910;2022-09-09T01:28:36;12.90;99.90
19878;DHT22;10101;52.204;9.910;2022-09-09T01:31:04;12.90;99.90
19878;DHT22;10101;52.204;9.910;2022-09-09T01:33:32;12.90;99.90
19878;DHT22;10101;52.204;9.910;2022-09-09T01:36:02;12.90;99.90
19878;DHT22;10101;52.204;9.910;2022-09-09T01:38:32;12.80;99.90
19878;DHT22;10101;52.204;9.910;2022-09-09T01:40:59;12.70;99.90
19878;DHT22;10101;52.204;9.910;2022-09-09T01:43:28;12.70;99.90
19878;DHT22;10101;52.204;9.910;2022-09-09T01:45:58;12.70;99.90
19878;DHT22;10101;52.204;9.910;2022-09-09T01:48:26;12.70;99.90
19878;DHT22;10101;52.204;9.910;2022-09-09T01:50:53;12.70;99.90
19878;DHT22;10101;52.204;9.910;2022-09-09T01:53:21;12.60;99.90
19878;DHT22;10101;52.204;9.910;2022-09-09T01:55:55;12.60;99.90
19878;DHT22;10101;52.204;9.910;2022-09-09T01:58:33;12.50;99.90
19878;DHT22;10101;52.204;9.910;2022-09-09T02:01:06;12.50;99.90
19878;DHT22;10101;52.204;9.910;2022-09-09T02:03:35;12.50;99.90
19878;DHT22;10101;52.204;9.910;2022-09-09T02:06:09;12.60;99.90
19878;DHT22;10101;52.204;9.910;2022-09-09T02:08:42;12.50;99.90
19878;DHT22;10101;52.204;9.910;2022-09-09T02:11:13;12.60;99.90
19878;DHT22;10101;52.204;9.910;2022-09-09T02:13:43;12.50;99.90
19878;DHT22;10101;52.204;9.910;2022-09-09T02:16:16;12.50;99.90
19878;DHT22;10101;52.204;9.910;2022-09-09T02:18:48;12.50;99.90
19878;DHT22;10101;52.204;9.910;2022-09-09T02:21:17;12.50;99.90
19878;DHT22;10101;52.204;9.910;2022-09-09T02:23:47;12.50;99.90
19878;DHT22;10101;52.204;9.910;2022-09-09T02:26:19;12.50;99.90
19878;DHT22;10101;52.204;9.910;2022-09-09T02:31:19;12.40;99.90
19878;DHT22;10101;52.204;9.910;2022-09-09T02:33:57;12.50;99.90
19878;DHT22;10101;52.204;9.910;2022-09-09T02:36:26;12.40;99.90
19878;DHT22;10101;52.204;9.910;2022-09-09T02:38:54;12.30;99.90
19878;DHT22;10101;52.204;9.910;2022-09-09T02:41:26;12.40;99.90
19878;DHT22;10101;52.204;9.910;2022-09-09T02:43:56;12.30;99.90
19878;DHT22;10101;52.204;9.910;2022-09-09T02:46:36;12.40;99.90
19878;DHT22;10101;52.204;9.910;2022-09-09T02:49:09;12.40;99.90
19878;DHT22;10101;52.204;9.910;2022-09-09T02:51:40;12.40;99.90
19878;DHT22;10101;52.204;9.910;2022-09-09T02:54:17;12.50;99.90
19878;DHT22;10101;52.204;9.910;2022-09-09T02:56:50;12.40;99.90
19878;DHT22;10101;52.204;9.910;2022-09-09T02:59:21;12.50;99.90
19878;DHT22;10101;52.204;9.910;2022-09-09T03:01:48;12.50;99.90
19878;DHT22;10101;52.204;9.910;2022-09-09T03:04:14;12.50;99.90
19878;DHT22;10101;52.204;9.910;2022-09-09T03:06:41;12.60;99.90
19878;DHT22;10101;52.204;9.910;2022-09-09T03:09:08;12.60;99.90
19878;DHT22;10101;52.204;9.910;2022-09-09T03:11:36;12.70;99.90
19878;DHT22;10101;52.204;9.910;2022-09-09T03:14:03;12.70;99.90
19878;DHT22;10101;52.204;9.910;2022-09-09T03:16:31;12.70;99.90
19878;DHT22;10101;52.204;9.910;2022-09-09T03:18:59;12.80;99.90
19878;DHT22;10101;52.204;9.910;2022-09-09T03:21:26;12.90;99.90
19878;DHT22;10101;52.204;9.910;2022-09-09T03:23:53;13.10;99.90
19878;DHT22;10101;52.204;9.910;2022-09-09T03:26:19;13.30;99.90
19878;DHT22;10101;52.204;9.910;2022-09-09T03:28:46;13.50;99.90
19878;DHT22;10101;52.204;9.910;2022-09-09T03:31:13;13.50;99.90
19878;DHT22;10101;52.204;9.910;2022-09-09T03:33:41;13.60;99.90
19878;DHT22;10101;52.204;9.910;2022-09-09T03:36:08;13.70;99.90
19878;DHT22;10101;52.204;9.910;2022-09-09T03:38:34;13.70;99.90
19878;DHT22;10101;52.204;9.910;2022-09-09T03:41:01;13.70;99.90
19878;DHT22;10101;52.204;9.910;2022-09-09T03:43:32;13.80;99.90
19878;DHT22;10101;52.204;9.910;2022-09-09T03:45:58;13.80;99.90
19878;DHT22;10101;52.204;9.910;2022-09-09T03:48:25;13.90;99.90
19878;DHT22;10101;52.204;9.910;2022-09-09T03:50:55;13.90;99.90
19878;DHT22;10101;52.204;9.910;2022-09-09T03:53:23;13.90;99.90
19878;DHT22;10101;52.204;9.910;2022-09-09T03:55:52;13.90;99.90
19878;DHT22;10101;52.204;9.910;2022-09-09T03:58:21;14.00;99.90
19878;DHT22;10101;52.204;9.910;2022-09-09T04:00:59;14.00;99.90
19878;DHT22;10101;52.204;9.910;2022-09-09T04:03:27;14.00;99.90
19878;DHT22;10101;52.204;9.910;2022-09-09T04:05:57;13.90;99.90
19878;DHT22;10101;52.204;9.910;2022-09-09T04:08:25;13.90;99.90
19878;DHT22;10101;52.204;9.910;2022-09-09T04:10:53;13.90;99.90
19878;DHT22;10101;52.204;9.910;2022-09-09T04:13:24;13.90;99.90
19878;DHT22;10101;52.204;9.910;2022-09-09T04:15:52;14.00;99.90
19878;DHT22;10101;52.204;9.910;2022-09-09T04:18:21;13.90;99.90
19878;DHT22;10101;52.204;9.910;2022-09-09T04:20:49;14.00;99.90
19878;DHT22;10101;52.204;9.910;2022-09-09T04:23:18;14.00;99.90
19878;DHT22;10101;52.204;9.910;2022-09-09T04:25:46;14.00;99.90
19878;DHT22;10101;52.204;9.910;2022-09-09T04:28:14;14.10;99.90
19878;DHT22;10101;52.204;9.910;2022-09-09T04:30:41;14.20;99.90
19878;DHT22;10101;52.204;9.910;2022-09-09T04:33:08;14.10;99.90
19878;DHT22;10101;52.204;9.910;2022-09-09T04:35:36;14.10;99.90
19878;DHT22;10101;52.204;9.910;2022-09-09T04:38:04;14.10;99.90
19878;DHT22;10101;52.204;9.910;2022-09-09T04:40:34;14.10;99.90
19878;DHT22;10101;52.204;9.910;2022-09-09T04:43:01;14.10;99.90
19878;DHT22;10101;52.204;9.910;2022-09-09T04:45:30;14.00;99.90
19878;DHT22;10101;52.204;9.910;2022-09-09T04:47:57;14.10;99.90
19878;DHT22;10101;52.204;9.910;2022-09-09T04:50:24;14.00;99.90
19878;DHT22;10101;52.204;9.910;2022-09-09T04:52:51;14.00;99.90
19878;DHT22;10101;52.204;9.910;2022-09-09T04:55:18;14.00;99.90
19878;DHT22;10101;52.204;9.910;2022-09-09T04:57:46;14.00;99.90
19878;DHT22;10101;52.204;9.910;2022-09-09T05:00:14;14.00;99.90
19878;DHT22;10101;52.204;9.910;2022-09-09T05:02:42;14.10;99.90
19878;DHT22;10101;52.204;9.910;2022-09-09T05:05:09;14.10;99.90
19878;DHT22;10101;52.204;9.910;2022-09-09T05:07:36;14.20;99.90
19878;DHT22;10101;52.204;9.910;2022-09-09T05:10:04;14.20;99.90
19878;DHT22;10101;52.204;9.910;2022-09-09T05:12:31;14.20;99.90
19878;DHT22;10101;52.204;9.910;2022-09-09T05:14:59;14.30;99.90
19878;DHT22;10101;52.204;9.910;2022-09-09T05:17:26;14.30;99.90
19878;DHT22;10101;52.204;9.910;2022-09-09T05:19:53;14.30;99.90
19878;DHT22;10101;52.204;9.910;2022-09-09T05:22:20;14.40;99.90
19878;DHT22;10101;52.204;9.910;2022-09-09T05:24:46;14.30;99.90
19878;DHT22;10101;52.204;9.910;2022-09-09T05:27:16;14.40;99.90
19878;DHT22;10101;52.204;9.910;2022-09-09T05:29:44;14.40;99.90
19878;DHT22;10101;52.204;9.910;2022-09-09T05:32:12;14.50;99.90
19878;DHT22;10101;52.204;9.910;2022-09-09T05:34:40;14.50;99.90
19878;DHT22;10101;52.204;9.910;2022-09-09T05:37:07;14.50;99.90
19878;DHT22;10101;52.204;9.910;2022-09-09T05:39:34;14.60;99.90
19878;DHT22;10101;52.204;9.910;2022-09-09T05:42:02;14.60;99.90
19878;DHT22;10101;52.204;9.910;2022-09-09T05:44:29;14.60;99.90
19878;DHT22;10101;52.204;9.910;2022-09-09T05:46:56;14.60;99.90
19878;DHT22;10101;52.204;9.910;2022-09-09T05:49:24;14.80;99.90
19878;DHT22;10101;52.204;9.910;2022-09-09T05:51:51;14.80;99.90
19878;DHT22;10101;52.204;9.910;2022-09-09T05:54:18;14.90;99.90
19878;DHT22;10101;52.204;9.910;2022-09-09T05:56:45;14.90;99.90
19878;DHT22;10101;52.204;9.910;2022-09-09T05:59:12;15.00;99.90
19878;DHT22;10101;52.204;9.910;2022-09-09T06:01:40;15.10;99.90
19878;DHT22;10101;52.204;9.910;2022-09-09T06:04:07;15.10;99.90
19878;DHT22;10101;52.204;9.910;2022-09-09T06:06:37;15.00;99.90
19878;DHT22;10101;52.204;9.910;2022-09-09T06:09:06;15.10;99.90
19878;DHT22;10101;52.204;9.910;2022-09-09T06:11:36;15.10;99.90
19878;DHT22;10101;52.204;9.910;2022-09-09T06:14:04;15.10;99.90
19878;DHT22;10101;52.204;9.910;2022-09-09T06:16:31;15.10;99.90
19878;DHT22;10101;52.204;9.910;2022-09-09T06:18:59;15.20;99.90
19878;DHT22;10101;52.204;9.910;2022-09-09T06:21:27;15.20;99.90
19878;DHT22;10101;52.204;9.910;2022-09-09T06:23:57;15.30;99.90
19878;DHT22;10101;52.204;9.910;2022-09-09T06:26:24;15.40;99.90
19878;DHT22;10101;52.204;9.910;2022-09-09T06:28:53;15.40;99.90
19878;DHT22;10101;52.204;9.910;2022-09-09T06:31:21;15.50;99.90
19878;DHT22;10101;52.204;9.910;2022-09-09T06:33:49;15.70;99.90
19878;DHT22;10101;52.204;9.910;2022-09-09T06:36:18;15.70;99.90
19878;DHT22;10101;52.204;9.910;2022-09-09T06:38:45;15.90;99.90
19878;DHT22;10101;52.204;9.910;2022-09-09T06:41:14;16.00;99.90
19878;DHT22;10101;52.204;9.910;2022-09-09T06:43:42;16.20;99.90
19878;DHT22;10101;52.204;9.910;2022-09-09T06:46:10;16.10;99.90
19878;DHT22;10101;52.204;9.910;2022-09-09T06:48:39;16.10;99.90
19878;DHT22;10101;52.204;9.910;2022-09-09T06:51:08;16.20;99.90
19878;DHT22;10101;52.204;9.910;2022-09-09T06:53:37;16.30;99.90
19878;DHT22;10101;52.204;9.910;2022-09-09T06:56:18;16.50;99.90
19878;DHT22;10101;52.204;9.910;2022-09-09T06:58:46;16.80;99.90
19878;DHT22;10101;52.204;9.910;2022-09-09T07:01:16;16.80;99.90
19878;DHT22;10101;52.204;9.910;2022-09-09T07:03:46;16.70;99.90
19878;DHT22;10101;52.204;9.910;2022-09-09T07:06:15;16.70;99.90
19878;DHT22;10101;52.204;9.910;2022-09-09T07:08:43;16.70;99.90
19878;DHT22;10101;52.204;9.910;2022-09-09T07:11:10;16.90;99.90
19878;DHT22;10101;52.204;9.910;2022-09-09T07:13:38;16.80;99.90
19878;DHT22;10101;52.204;9.910;2022-09-09T07:16:07;16.90;99.90
19878;DHT22;10101;52.204;9.910;2022-09-09T07:18:34;17.10;99.90
19878;DHT22;10101;52.204;9.910;2022-09-09T07:21:02;17.00;99.90
19878;DHT22;10101;52.204;9.910;2022-09-09T07:23:29;17.00;99.90
19878;DHT22;10101;52.204;9.910;2022-09-09T07:25:57;17.00;99.90
19878;DHT22;10101;52.204;9.910;2022-09-09T07:28:24;17.00;99.90
19878;DHT22;10101;52.204;9.910;2022-09-09T07:30:56;17.10;99.90
19878;DHT22;10101;52.204;9.910;2022-09-09T07:33:23;17.20;99.90
19878;DHT22;10101;52.204;9.910;2022-09-09T07:35:51;17.20;99.90
19878;DHT22;10101;52.204;9.910;2022-09-09T07:38:18;17.10;99.90
19878;DHT22;10101;52.204;9.910;2022-09-09T07:40:45;17.50;99.90
19878;DHT22;10101;52.204;9.910;2022-09-09T07:43:12;17.40;99.90
19878;DHT22;10101;52.204;9.910;2022-09-09T07:45:39;17.40;99.90
19878;DHT22;10101;52.204;9.910;2022-09-09T07:48:08;17.60;99.90
19878;DHT22;10101;52.204;9.910;2022-09-09T07:50:36;17.80;99.90
19878;DHT22;10101;52.204;9.910;2022-09-09T07:53:03;17.80;99.90
19878;DHT22;10101;52.204;9.910;2022-09-09T07:55:30;17.80;99.90
19878;DHT22;10101;52.204;9.910;2022-09-09T07:57:57;17.60;99.90
19878;DHT22;10101;52.204;9.910;2022-09-09T08:00:24;17.90;99.90
19878;DHT22;10101;52.204;9.910;2022-09-09T08:02:53;17.80;99.90
19878;DHT22;10101;52.204;9.910;2022-09-09T08:05:21;17.80;99.90
19878;DHT22;10101;52.204;9.910;2022-09-09T08:07:48;18.00;99.90
19878;DHT22;10101;52.204;9.910;2022-09-09T08:10:15;17.90;99.90
19878;DHT22;10101;52.204;9.910;2022-09-09T08:12:43;17.80;99.90
19878;DHT22;10101;52.204;9.910;2022-09-09T08:15:10;18.20;99.90
19878;DHT22;10101;52.204;9.910;2022-09-09T08:17:37;18.20;99.90
19878;DHT22;10101;52.204;9.910;2022-09-09T08:20:05;18.40;99.90
19878;DHT22;10101;52.204;9.910;2022-09-09T08:22:33;18.50;99.90
19878;DHT22;10101;52.204;9.910;2022-09-09T08:25:00;18.50;99.90
19878;DHT22;10101;52.204;9.910;2022-09-09T08:27:27;18.80;99.90
19878;DHT22;10101;52.204;9.910;2022-09-09T08:29:54;19.30;99.90
19878;DHT22;10101;52.204;9.910;2022-09-09T08:32:21;19.10;99.90
19878;DHT22;10101;52.204;9.910;2022-09-09T08:34:48;18.90;99.90
19878;DHT22;10101;52.204;9.910;2022-09-09T08:37:15;18.70;99.90
19878;DHT22;10101;52.204;9.910;2022-09-09T08:39:43;19.10;99.90
19878;DHT22;10101;52.204;9.910;2022-09-09T08:42:28;19.00;99.90
19878;DHT22;10101;52.204;9.910;2022-09-09T08:47:52;18.90;99.90
19878;DHT22;10101;52.204;9.910;2022-09-09T08:50:23;19.10;99.90
19878;DHT22;10101;52.204;9.910;2022-09-09T08:52:57;19.10;99.90
19878;DHT22;10101;52.204;9.910;2022-09-09T08:55:34;19.30;99.90
19878;DHT22;10101;52.204;9.910;2022-09-09T08:58:08;19.40;99.90
19878;DHT22;10101;52.204;9.910;2022-09-09T09:00:48;19.50;99.90
19878;DHT22;10101;52.204;9.910;2022-09-09T09:03:25;19.50;99.90
19878;DHT22;10101;52.204;9.910;2022-09-09T09:06:01;19.60;99.90
19878;DHT22;10101;52.204;9.910;2022-09-09T09:08:36;19.70;99.90
19878;DHT22;10101;52.204;9.910;2022-09-09T09:11:07;19.80;99.90
19878;DHT22;10101;52.204;9.910;2022-09-09T09:13:38;19.90;99.90
19878;DHT22;10101;52.204;9.910;2022-09-09T09:16:13;20.20;99.90
19878;DHT22;10101;52.204;9.910;2022-09-09T09:18:43;20.40;99.90
19878;DHT22;10101;52.204;9.910;2022-09-09T09:21:13;20.00;99.90
19878;DHT22;10101;52.204;9.910;2022-09-09T09:23:49;19.90;99.90
19878;DHT22;10101;52.204;9.910;2022-09-09T09:26:19;20.30;99.90
19878;DHT22;10101;52.204;9.910;2022-09-09T09:28:47;20.40;99.90
19878;DHT22;10101;52.204;9.910;2022-09-09T09:31:15;20.30;99.90
19878;DHT22;10101;52.204;9.910;2022-09-09T09:33:47;20.50;99.90
19878;DHT22;10101;52.204;9.910;2022-09-09T09:36:15;20.50;99.90
19878;DHT22;10101;52.204;9.910;2022-09-09T09:38:53;20.60;99.90
19878;DHT22;10101;52.204;9.910;2022-09-09T09:41:36;21.00;99.90
19878;DHT22;10101;52.204;9.910;2022-09-09T09:44:05;20.90;99.90
19878;DHT22;10101;52.204;9.910;2022-09-09T09:46:32;20.70;99.90
19878;DHT22;10101;52.204;9.910;2022-09-09T09:49:01;20.50;99.90
19878;DHT22;10101;52.204;9.910;2022-09-09T09:51:29;20.50;99.90
19878;DHT22;10101;52.204;9.910;2022-09-09T09:54:09;20.70;99.90
19878;DHT22;10101;52.204;9.910;2022-09-09T09:56:42;20.70;99.90
19878;DHT22;10101;52.204;9.910;2022-09-09T09:59:21;20.70;99.90
19878;DHT22;10101;52.204;9.910;2022-09-09T10:01:48;21.30;99.90
19878;DHT22;10101;52.204;9.910;2022-09-09T10:04:18;21.10;99.90
19878;DHT22;10101;52.204;9.910;2022-09-09T10:06:47;21.00;99.90
19878;DHT22;10101;52.204;9.910;2022-09-09T10:09:24;20.60;99.90
19878;DHT22;10101;52.204;9.910;2022-09-09T10:11:59;20.50;99.90
19878;DHT22;10101;52.204;9.910;2022-09-09T10:14:35;20.20;99.90
19878;DHT22;10101;52.204;9.910;2022-09-09T10:17:15;20.20;99.90
19878;DHT22;10101;52.204;9.910;2022-09-09T10:19:55;20.30;99.90
19878;DHT22;10101;52.204;9.910;2022-09-09T10:22:26;20.20;99.90
19878;DHT22;10101;52.204;9.910;2022-09-09T10:25:30;20.30;99.90
19878;DHT22;10101;52.204;9.910;2022-09-09T10:28:35;20.20;99.90
19878;DHT22;10101;52.204;9.910;2022-09-09T10:31:14;20.40;99.90
19878;DHT22;10101;52.204;9.910;2022-09-09T10:33:49;20.40;99.90
19878;DHT22;10101;52.204;9.910;2022-09-09T10:36:19;20.50;99.90
19878;DHT22;10101;52.204;9.910;2022-09-09T10:38:47;20.70;99.90
19878;DHT22;10101;52.204;9.910;2022-09-09T10:41:32;20.70;99.90
19878;DHT22;10101;52.204;9.910;2022-09-09T10:44:22;20.70;99.90
19878;DHT22;10101;52.204;9.910;2022-09-09T10:47:14;20.80;99.90
19878;DHT22;10101;52.204;9.910;2022-09-09T10:52:49;20.90;1.00
19878;DHT22;10101;52.204;9.910;2022-09-09T10:55:20;21.10;2.70
19878;DHT22;10101;52.204;9.910;2022-09-09T10:57:53;21.10;1.00
19878;DHT22;10101;52.204;9.910;2022-09-09T11:00:24;20.90;99.90
19878;DHT22;10101;52.204;9.910;2022-09-09T11:02:55;20.70;99.90
19878;DHT22;10101;52.204;9.910;2022-09-09T11:05:28;20.60;99.90
19878;DHT22;10101;52.204;9.910;2022-09-09T11:07:59;20.70;1.00
19878;DHT22;10101;52.204;9.910;2022-09-09T11:10:33;20.60;99.90
19878;DHT22;10101;52.204;9.910;2022-09-09T11:13:05;20.40;1.00
19878;DHT22;10101;52.204;9.910;2022-09-09T11:15:41;20.10;99.90
19878;DHT22;10101;52.204;9.910;2022-09-09T11:18:13;20.00;1.00
19878;DHT22;10101;52.204;9.910;2022-09-09T11:20:43;19.80;40.30
19878;DHT22;10101;52.204;9.910;2022-09-09T11:23:14;20.10;99.90
19878;DHT22;10101;52.204;9.910;2022-09-09T11:25:45;20.10;99.90
19878;DHT22;10101;52.204;9.910;2022-09-09T11:28:32;20.10;99.90
19878;DHT22;10101;52.204;9.910;2022-09-09T11:34:13;19.90;99.90
19878;DHT22;10101;52.204;9.910;2022-09-09T11:37:12;19.80;99.90
19878;DHT22;10101;52.204;9.910;2022-09-09T11:40:08;20.10;99.90
19878;DHT22;10101;52.204;9.910;2022-09-09T11:42:36;19.60;99.90
19878;DHT22;10101;52.204;9.910;2022-09-09T11:45:15;19.20;99.90
19878;DHT22;10101;52.204;9.910;2022-09-09T11:47:53;19.20;99.90
19878;DHT22;10101;52.204;9.910;2022-09-09T11:50:33;18.80;99.90
19878;DHT22;10101;52.204;9.910;2022-09-09T11:53:21;18.60;99.90
19878;DHT22;10101;52.204;9.910;2022-09-09T11:56:01;18.40;99.90
19878;DHT22;10101;52.204;9.910;2022-09-09T11:58:33;18.30;99.90
19878;DHT22;10101;52.204;9.910;2022-09-09T12:01:13;18.40;99.90
19878;DHT22;10101;52.204;9.910;2022-09-09T12:03:45;18.30;99.90
19878;DHT22;10101;52.204;9.910;2022-09-09T12:06:16;18.10;99.90
19878;DHT22;10101;52.204;9.910;2022-09-09T12:08:51;18.10;99.90
19878;DHT22;10101;52.204;9.910;2022-09-09T12:11:26;18.10;99.90
19878;DHT22;10101;52.204;9.910;2022-09-09T12:13:54;18.00;99.90
19878;DHT22;10101;52.204;9.910;2022-09-09T12:16:30;18.00;99.90
19878;DHT22;10101;52.204;9.910;2022-09-09T12:19:14;18.00;99.90
19878;DHT22;10101;52.204;9.910;2022-09-09T12:21:48;18.00;99.90
19878;DHT22;10101;52.204;9.910;2022-09-09T12:24:23;18.00;99.90
19878;DHT22;10101;52.204;9.910;2022-09-09T12:26:56;18.00;99.90
19878;DHT22;10101;52.204;9.910;2022-09-09T12:29:29;18.00;99.90
19878;DHT22;10101;52.204;9.910;2022-09-09T12:32:02;18.00;99.90
19878;DHT22;10101;52.204;9.910;2022-09-09T12:34:39;18.00;99.90
19878;DHT22;10101;52.204;9.910;2022-09-09T12:37:16;18.00;99.90
19878;DHT22;10101;52.204;9.910;2022-09-09T12:39:47;17.90;99.90
19878;DHT22;10101;52.204;9.910;2022-09-09T12:42:17;17.90;99.90
19878;DHT22;10101;52.204;9.910;2022-09-09T12:44:51;18.00;99.90
19878;DHT22;10101;52.204;9.910;2022-09-09T12:47:20;18.00;99.90
19878;DHT22;10101;52.204;9.910;2022-09-09T12:49:49;18.00;99.90
19878;DHT22;10101;52.204;9.910;2022-09-09T12:52:22;18.10;99.90
19878;DHT22;10101;52.204;9.910;2022-09-09T12:54:50;18.10;99.90
19878;DHT22;10101;52.204;9.910;2022-09-09T12:57:19;18.10;99.90
19878;DHT22;10101;52.204;9.910;2022-09-09T12:59:46;18.10;99.90
19878;DHT22;10101;52.204;9.910;2022-09-09T13:02:22;18.20;99.90
19878;DHT22;10101;52.204;9.910;2022-09-09T13:04:51;18.20;99.90
19878;DHT22;10101;52.204;9.910;2022-09-09T13:07:20;18.20;99.90
19878;DHT22;10101;52.204;9.910;2022-09-09T13:09:48;18.30;99.90
19878;DHT22;10101;52.204;9.910;2022-09-09T13:12:19;18.30;99.90
19878;DHT22;10101;52.204;9.910;2022-09-09T13:14:48;18.30;99.90
19878;DHT22;10101;52.204;9.910;2022-09-09T13:17:20;18.40;99.90
19878;DHT22;10101;52.204;9.910;2022-09-09T13:19:49;18.50;99.90
19878;DHT22;10101;52.204;9.910;2022-09-09T13:22:22;18.60;99.90
19878;DHT22;10101;52.204;9.910;2022-09-09T13:25:03;18.60;99.90
19878;DHT22;10101;52.204;9.910;2022-09-09T13:27:32;18.90;99.90
19878;DHT22;10101;52.204;9.910;2022-09-09T13:30:00;18.90;99.90
19878;DHT22;10101;52.204;9.910;2022-09-09T13:32:28;19.00;99.90
19878;DHT22;10101;52.204;9.910;2022-09-09T13:34:59;19.20;99.90
19878;DHT22;10101;52.204;9.910;2022-09-09T13:37:31;19.30;99.90
19878;DHT22;10101;52.204;9.910;2022-09-09T13:40:00;19.70;99.90
19878;DHT22;10101;52.204;9.910;2022-09-09T13:42:29;20.10;99.90
19878;DHT22;10101;52.204;9.910;2022-09-09T13:44:58;20.40;99.90
19878;DHT22;10101;52.204;9.910;2022-09-09T13:47:30;21.00;99.90
19878;DHT22;10101;52.204;9.910;2022-09-09T13:50:17;21.60;99.90
19878;DHT22;10101;52.204;9.910;2022-09-09T13:52:44;21.90;99.90
19878;DHT22;10101;52.204;9.910;2022-09-09T13:55:13;22.20;99.90
19878;DHT22;10101;52.204;9.910;2022-09-09T13:57:50;22.70;99.90
19878;DHT22;10101;52.204;9.910;2022-09-09T14:00:17;22.60;99.90
19878;DHT22;10101;52.204;9.910;2022-09-09T14:02:43;22.10;99.90
19878;DHT22;10101;52.204;9.910;2022-09-09T14:05:12;21.60;99.90
19878;DHT22;10101;52.204;9.910;2022-09-09T14:07:39;21.40;99.90
19878;DHT22;10101;52.204;9.910;2022-09-09T14:10:07;21.30;99.90
19878;DHT22;10101;52.204;9.910;2022-09-09T14:12:34;20.80;99.90
19878;DHT22;10101;52.204;9.910;2022-09-09T14:15:02;20.50;99.90
19878;DHT22;10101;52.204;9.910;2022-09-09T14:17:29;21.10;99.90
19878;DHT22;10101;52.204;9.910;2022-09-09T14:19:57;22.70;99.90
19878;DHT22;10101;52.204;9.910;2022-09-09T14:22:25;24.80;99.90
19878;DHT22;10101;52.204;9.910;2022-09-09T14:24:52;24.50;99.90
19878;DHT22;10101;52.204;9.910;2022-09-09T14:27:19;23.10;99.90
19878;DHT22;10101;52.204;9.910;2022-09-09T14:29:46;22.70;1.00
19878;DHT22;10101;52.204;9.910;2022-09-09T14:32:13;21.90;1.00
19878;DHT22;10101;52.204;9.910;2022-09-09T14:34:40;21.40;99.90
19878;DHT22;10101;52.204;9.910;2022-09-09T14:37:07;21.30;99.90
19878;DHT22;10101;52.204;9.910;2022-09-09T14:39:35;21.10;99.90
19878;DHT22;10101;52.204;9.910;2022-09-09T14:42:01;21.00;99.90
19878;DHT22;10101;52.204;9.910;2022-09-09T14:44:28;21.00;99.90
19878;DHT22;10101;52.204;9.910;2022-09-09T14:46:55;21.30;99.90
19878;DHT22;10101;52.204;9.910;2022-09-09T14:49:24;25.40;99.90
19878;DHT22;10101;52.204;9.910;2022-09-09T14:51:50;27.40;82.70
19878;DHT22;10101;52.204;9.910;2022-09-09T14:54:17;27.60;1.00
19878;DHT22;10101;52.204;9.910;2022-09-09T14:56:45;28.20;1.00
19878;DHT22;10101;52.204;9.910;2022-09-09T14:59:12;29.10;99.90
19878;DHT22;10101;52.204;9.910;2022-09-09T15:01:39;29.60;1.00
19878;DHT22;10101;52.204;9.910;2022-09-09T15:04:06;28.70;1.00
19878;DHT22;10101;52.204;9.910;2022-09-09T15:06:35;26.10;99.90
19878;DHT22;10101;52.204;9.910;2022-09-09T15:09:04;26.40;99.90
19878;DHT22;10101;52.204;9.910;2022-09-09T15:11:34;25.00;1.00
19878;DHT22;10101;52.204;9.910;2022-09-09T15:14:05;23.90;1.00
19878;DHT22;10101;52.204;9.910;2022-09-09T15:16:32;26.10;1.00
19878;DHT22;10101;52.204;9.910;2022-09-09T15:19:00;27.70;1.00
19878;DHT22;10101;52.204;9.910;2022-09-09T15:21:28;27.90;1.00
19878;DHT22;10101;52.204;9.910;2022-09-09T15:23:56;27.80;1.00
19878;DHT22;10101;52.204;9.910;2022-09-09T15:26:23;27.20;1.00
19878;DHT22;10101;52.204;9.910;2022-09-09T15:28:50;26.10;1.00
19878;DHT22;10101;52.204;9.910;2022-09-09T15:31:19;26.00;99.90
19878;DHT22;10101;52.204;9.910;2022-09-09T15:33:47;26.00;99.90
19878;DHT22;10101;52.204;9.910;2022-09-09T15:36:16;25.50;99.90
19878;DHT22;10101;52.204;9.910;2022-09-09T15:38:43;25.20;99.90
19878;DHT22;10101;52.204;9.910;2022-09-09T15:41:10;25.30;99.90
19878;DHT22;10101;52.204;9.910;2022-09-09T15:43:37;25.10;99.90
19878;DHT22;10101;52.204;9.910;2022-09-09T15:46:23;25.10;99.90
19878;DHT22;10101;52.204;9.910;2022-09-09T15:48:52;25.40;99.90
19878;DHT22;10101;52.204;9.910;2022-09-09T15:51:20;25.40;99.90
19878;DHT22;10101;52.204;9.910;2022-09-09T15:53:47;26.00;99.90
19878;DHT22;10101;52.204;9.910;2022-09-09T15:56:13;25.90;99.90
19878;DHT22;10101;52.204;9.910;2022-09-09T15:58:40;24.40;1.00
19878;DHT22;10101;52.204;9.910;2022-09-09T16:01:09;23.40;1.00
19878;DHT22;10101;52.204;9.910;2022-09-09T16:03:40;23.00;1.00
19878;DHT22;10101;52.204;9.910;2022-09-09T16:06:08;22.90;1.00